Time;durP1;ratioP1;P1;durP2;ratioP2;P2;SDS_P1;SDS_P2;PMS_P1;PMS_P2;Temp;Humidity;BMP_temperature;BMP_pressure;BME280_temperature;BME280_humidity;BME280_pressure;Samples;Min_cycle;Max_cycle;Signal;HPM_P1;HPM_P2
2023/05/22 00:02:13;;;;;;;15.63;7.10;;;;;;;11.98;100.00;92529.78;4954170;29;20042;-76
2023/05/22 00:04:38;;;;;;;10.95;6.22;;;;;;;12.02;100.00;92535.22;4953369;28;20039;-76
2023/05/22 00:07:05;;;;;;;9.63;7.03;;;;;;;12.06;100.00;92525.69;4953711;29;20035;-76
2023/05/22 00:09:31;;;;;;;13.07;7.25;;;;;;;12.00;100.00;92521.59;4936998;29;20078;-76
2023/05/22 00:11:57;;;;;;;10.18;6.75;;;;;;;12.00;100.00;92529.47;4936821;29;20078;-76
2023/05/22 00:14:22;;;;;;;9.75;6.78;;;;;;;12.02;100.00;92532.59;4953693;28;20047;-76
2023/05/22 00:16:49;;;;;;;13.60;7.32;;;;;;;11.97;100.00;92522.22;4936848;29;20066;-75
2023/05/22 00:19:15;;;;;;;12.07;7.32;;;;;;;11.97;100.00;92516.97;4936604;29;20039;-76
2023/05/22 00:21:45;;;;;;;11.88;7.25;;;;;;;11.97;100.00;92522.97;4953883;29;20079;-75
2023/05/22 00:24:11;;;;;;;10.48;6.95;;;;;;;11.95;100.00;92514.63;4936626;29;20035;-76
2023/05/22 00:26:36;;;;;;;10.57;7.10;;;;;;;11.99;100.00;92522.69;4953846;29;20106;-76
2023/05/22 00:29:04;;;;;;;13.82;7.47;;;;;;;11.98;100.00;92518.50;4936355;29;20043;-76
2023/05/22 00:31:30;;;;;;;14.38;6.97;;;;;;;11.91;100.00;92515.50;4952980;28;20449;-76
2023/05/22 00:33:57;;;;;;;11.13;7.25;;;;;;;11.84;100.00;92519.28;4936004;29;20046;-75
2023/05/22 00:36:23;;;;;;;12.50;7.32;;;;;;;11.79;100.00;92521.22;4953610;29;20249;-76
2023/05/22 00:38:49;;;;;;;11.70;7.45;;;;;;;11.74;100.00;92523.94;4936068;29;20042;-76
2023/05/22 00:41:15;;;;;;;13.00;6.80;;;;;;;11.72;100.00;92526.84;4936272;29;20445;-76
2023/05/22 00:43:40;;;;;;;11.13;7.00;;;;;;;11.69;100.00;92531.91;4953336;28;20035;-76
2023/05/22 00:46:06;;;;;;;11.25;7.40;;;;;;;11.66;100.00;92528.00;4952148;29;20066;-76
2023/05/22 00:48:33;;;;;;;12.60;7.68;;;;;;;11.69;100.00;92529.28;4920563;29;20046;-76
2023/05/22 00:50:59;;;;;;;10.07;7.47;;;;;;;11.69;100.00;92529.28;4936012;29;20028;-76
2023/05/22 00:53:27;;;;;;;10.13;7.20;;;;;;;11.73;100.00;92527.63;4949573;28;20051;-76
2023/05/22 00:55:54;;;;;;;12.63;7.43;;;;;;;11.75;100.00;92536.75;4953148;29;20040;-76
2023/05/22 00:58:20;;;;;;;13.90;7.13;;;;;;;11.77;100.00;92532.00;4936293;29;20042;-77
2023/05/22 01:00:46;;;;;;;10.35;7.15;;;;;;;11.80;100.00;92528.81;4952298;29;20105;-76
2023/05/22 01:03:13;;;;;;;13.00;7.47;;;;;;;11.82;100.00;92528.50;4952025;28;20143;-76
2023/05/22 01:05:40;;;;;;;13.75;7.55;;;;;;;11.83;100.00;92528.22;4951823;29;20042;-75
2023/05/22 01:08:07;;;;;;;13.60;7.75;;;;;;;11.85;100.00;92543.66;4953084;29;20039;-76
2023/05/22 01:10:35;;;;;;;13.95;7.95;;;;;;;11.83;100.00;92538.69;4920151;29;20035;-76
2023/05/22 01:13:19;;;;;;;11.48;7.45;;;;;;;11.81;100.00;92540.84;4952893;28;20046;-75
2023/05/22 01:15:47;;;;;;;10.95;7.32;;;;;;;11.81;100.00;92551.31;4953500;29;20035;-76
2023/05/22 01:18:25;;;;;;;11.30;7.50;;;;;;;11.81;100.00;92546.06;4951878;29;20085;-76
2023/05/22 01:21:05;;;;;;;12.48;7.57;;;;;;;11.83;100.00;92543.94;4951912;29;20089;-76
2023/05/22 01:23:39;;;;;;;12.60;8.32;;;;;;;11.88;100.00;92532.59;4952104;28;20031;-76
2023/05/22 01:26:42;;;;;;;13.32;8.68;;;;;;;11.88;100.00;92515.00;4951641;29;20062;-76
2023/05/22 01:29:11;;;;;;;;;;;;;;;11.88;100.00;92504.53;4953478;29;20066;-75
2023/05/22 01:31:44;;;;;;;13.70;7.50;;;;;;;11.77;100.00;92500.50;4952955;29;19981;-75
2023/05/22 01:34:11;;;;;;;11.50;7.78;;;;;;;11.73;100.00;92507.44;4951528;28;20046;-75
2023/05/22 01:36:40;;;;;;;12.77;8.15;;;;;;;11.66;100.00;92507.81;4935856;29;20035;-76
2023/05/22 01:39:06;;;;;;;14.90;8.02;;;;;;;11.64;100.00;92499.47;4951841;29;20071;-75
2023/05/22 01:41:35;;;;;;;13.00;8.40;;;;;;;11.58;100.00;92499.88;4935634;29;20050;-76
2023/05/22 01:44:02;;;;;;;15.05;7.80;;;;;;;11.58;100.00;92494.63;4953323;28;20413;-76
2023/05/22 01:46:29;;;;;;;13.15;8.18;;;;;;;11.59;100.00;92493.53;4939092;29;20035;-75
2023/05/22 01:48:55;;;;;;;12.02;7.85;;;;;;;11.64;100.00;92486.38;4957217;29;20450;-76
2023/05/22 01:52:12;;;;;;;15.88;7.95;;;;;;;11.68;100.00;92489.16;4956152;29;20135;-76
2023/05/22 01:54:52;;;;;;;9.35;7.10;;;;;;;11.70;100.00;92487.03;4923210;29;20531;-76
2023/05/22 01:57:23;;;;;;;10.30;6.47;;;;;;;11.73;100.00;92483.84;4955003;29;20066;-76
2023/05/22 01:59:57;;;;;;;11.20;6.63;;;;;;;11.76;100.00;92478.00;4939476;29;20333;-76
2023/05/22 02:02:24;;;;;;;9.85;7.32;;;;;;;11.75;100.00;92479.06;4955277;29;20477;-75
2023/05/22 02:04:59;;;;;;;9.98;6.75;;;;;;;11.72;100.00;92487.50;4956154;28;20039;-76
2023/05/22 02:07:27;;;;;;;11.40;7.13;;;;;;;11.70;100.00;92481.78;4954836;29;20127;-76
2023/05/22 02:09:55;;;;;;;12.50;7.50;;;;;;;11.66;100.00;92486.84;4954708;29;20039;-76
2023/05/22 02:12:22;;;;;;;11.02;7.45;;;;;;;11.61;100.00;92494.03;4939030;29;20039;-76
2023/05/22 02:14:48;;;;;;;12.02;7.35;;;;;;;11.55;100.00;92485.50;4954806;28;20390;-76
2023/05/22 02:17:14;;;;;;;11.82;7.30;;;;;;;11.48;100.00;92489.56;4938903;29;20102;-76
2023/05/22 02:19:41;;;;;;;11.48;7.22;;;;;;;11.42;100.00;92487.03;4939001;29;20047;-76
2023/05/22 02:22:08;;;;;;;13.75;7.20;;;;;;;11.37;100.00;92486.34;4922763;29;20043;-76
2023/05/22 02:24:35;;;;;;;11.45;7.35;;;;;;;11.33;100.00;92488.00;4938659;29;20547;-76
2023/05/22 02:27:02;;;;;;;9.88;7.22;;;;;;;11.29;100.00;92482.56;4938536;29;20039;-76
2023/05/22 02:29:28;;;;;;;11.30;6.72;;;;;;;11.27;100.00;92484.69;4956111;29;20074;-76
2023/05/22 02:31:54;;;;;;;13.65;7.53;;;;;;;11.22;100.00;92490.78;4938696;29;20040;-76
2023/05/22 02:34:20;;;;;;;10.98;7.35;;;;;;;11.21;100.00;92483.22;4938541;29;20379;-76
2023/05/22 02:36:46;;;;;;;9.50;6.95;;;;;;;11.17;100.00;92484.88;4938483;29;20047;-75
2023/05/22 02:39:12;;;;;;;11.07;7.40;;;;;;;11.13;100.00;92483.91;4938225;29;20100;-76
2023/05/22 02:41:38;;;;;;;10.07;7.00;;;;;;;11.10;100.00;92481.84;4938080;29;20035;-76
2023/05/22 02:44:03;;;;;;;11.82;7.03;;;;;;;11.08;100.00;92482.16;4938286;29;20047;-76
2023/05/22 02:46:29;;;;;;;12.80;7.97;;;;;;;11.06;100.00;92478.28;4937785;29;20023;-76
2023/05/22 02:48:54;;;;;;;12.48;7.18;;;;;;;11.06;100.00;92478.28;4938161;29;20100;-76
2023/05/22 02:51:20;;;;;;;10.77;7.30;;;;;;;11.08;100.00;92481.34;4938302;29;20130;-76
2023/05/22 02:53:46;;;;;;;12.20;7.57;;;;;;;11.06;100.00;92484.28;4955140;28;20043;-75
2023/05/22 02:56:11;;;;;;;10.98;6.97;;;;;;;11.04;100.00;92481.94;4954537;28;20114;-76
2023/05/22 02:58:40;;;;;;;11.10;6.90;;;;;;;11.06;100.00;92480.88;4955253;29;20102;-76
2023/05/22 03:01:07;;;;;;;9.35;6.68;;;;;;;11.06;100.00;92484.28;4938055;29;20050;-76
2023/05/22 03:03:33;;;;;;;9.88;6.68;;;;;;;11.08;100.00;92482.16;4937883;29;20043;-76
2023/05/22 03:06:00;;;;;;;11.18;6.80;;;;;;;11.07;100.00;92474.56;4954247;29;20070;-76
2023/05/22 03:08:30;;;;;;;8.80;6.55;;;;;;;11.06;100.00;92468.56;4955259;29;20093;-76
2023/05/22 03:10:57;;;;;;;10.88;6.15;;;;;;;11.06;100.00;92478.28;4953865;29;20039;-76
2023/05/22 03:13:23;;;;;;;10.52;6.43;;;;;;;11.04;100.00;92474.06;4937560;29;20039;-76
2023/05/22 03:15:50;;;;;;;10.48;6.20;;;;;;;11.01;100.00;92485.16;4938059;29;20057;-76
2023/05/22 03:18:16;;;;;;;8.07;5.90;;;;;;;10.99;100.00;92478.66;4921974;29;20047;-76
2023/05/22 03:20:42;;;;;;;11.68;6.60;;;;;;;10.98;100.00;92487.56;4937693;29;20043;-76
2023/05/22 03:23:07;;;;;;;9.10;6.45;;;;;;;10.95;100.00;92482.91;4937528;28;20564;-76
2023/05/22 03:25:33;;;;;;;9.57;6.38;;;;;;;10.93;100.00;92487.66;4921240;29;20569;-75
2023/05/22 03:27:59;;;;;;;9.25;6.32;;;;;;;11.01;100.00;92498.25;4937547;29;20090;-76
2023/05/22 03:30:28;;;;;;;10.85;7.13;;;;;;;11.07;100.00;92506.00;4922138;29;20043;-76
2023/05/22 03:33:08;;;;;;;11.90;7.43;;;;;;;11.04;100.00;92517.84;4937521;28;20039;-76
2023/05/22 03:35:33;;;;;;;14.55;8.05;;;;;;;10.97;100.00;92523.44;4937667;29;20043;-76
2023/05/22 03:37:59;;;;;;;14.48;7.97;;;;;;;10.90;100.00;92530.09;4953199;29;20035;-76
2023/05/22 03:40:24;;;;;;;12.48;8.05;;;;;;;10.80;100.00;92536.28;4937477;29;20457;-76
2023/05/22 03:42:51;;;;;;;11.18;7.60;;;;;;;10.84;100.00;92542.50;4953335;28;20066;-76
2023/05/22 03:45:17;;;;;;;11.63;7.80;;;;;;;10.84;100.00;92534.66;4937308;29;20043;-76
2023/05/22 03:47:42;;;;;;;16.80;7.78;;;;;;;10.83;100.00;92539.13;4937507;29;20054;-76
2023/05/22 03:50:08;;;;;;;12.73;7.90;;;;;;;10.82;100.00;92537.56;4937235;29;20040;-77
2023/05/22 03:52:34;;;;;;;15.23;8.07;;;;;;;10.84;100.00;92535.44;4933921;29;20516;-76
2023/05/22 03:55:00;;;;;;;11.70;7.70;;;;;;;10.85;100.00;92536.19;4950077;28;20153;-76
2023/05/22 03:57:26;;;;;;;12.45;8.30;;;;;;;10.87;100.00;92543.78;4949933;29;20071;-76
2023/05/22 03:59:51;;;;;;;15.93;8.07;;;;;;;10.89;100.00;92547.66;4934319;29;20040;-76
2023/05/22 04:02:17;;;;;;;11.70;7.60;;;;;;;10.92;100.00;92547.09;4935209;29;20040;-76
2023/05/22 04:04:45;;;;;;;11.30;7.75;;;;;;;10.95;100.00;92546.53;4935520;29;20501;-77
2023/05/22 04:07:13;;;;;;;12.00;7.80;;;;;;;10.97;100.00;92552.25;4933741;29;20035;-76
2023/05/22 04:09:40;;;;;;;10.80;7.75;;;;;;;11.00;100.00;92549.06;4934870;29;20102;-76
2023/05/22 04:12:06;;;;;;;9.88;7.05;;;;;;;11.02;100.00;92554.78;4934133;29;20039;-76
2023/05/22 04:14:32;;;;;;;11.63;7.55;;;;;;;11.04;100.00;92565.75;4934893;29;20510;-75
2023/05/22 04:16:58;;;;;;;11.63;7.55;;;;;;;11.09;100.00;92566.75;4935057;29;20174;-76
2023/05/22 04:19:26;;;;;;;13.13;7.20;;;;;;;11.18;100.00;92565.78;4933626;29;20039;-76
2023/05/22 04:21:53;;;;;;;10.55;7.00;;;;;;;11.30;100.00;92570.56;4933698;29;20040;-76
2023/05/22 04:24:21;;;;;;;11.15;7.55;;;;;;;11.33;100.00;92567.41;4933431;29;20035;-76
2023/05/22 04:26:48;;;;;;;9.50;7.00;;;;;;;11.34;100.00;92578.66;4933198;29;20106;-76
2023/05/22 04:29:15;;;;;;;11.73;6.72;;;;;;;11.33;100.00;92577.88;4932896;29;20391;-76
2023/05/22 04:31:43;;;;;;;13.43;7.28;;;;;;;11.35;100.00;92582.81;4948969;29;20039;-76
2023/05/22 04:34:13;;;;;;;12.20;7.60;;;;;;;11.34;100.00;92594.38;4932902;29;20035;-76
2023/05/22 04:36:39;;;;;;;13.88;7.53;;;;;;;11.32;100.00;92594.66;4932783;29;20178;-76
2023/05/22 04:39:04;;;;;;;10.68;7.47;;;;;;;11.32;100.00;92594.66;4948905;29;20523;-76
2023/05/22 04:41:31;;;;;;;10.35;7.45;;;;;;;11.34;100.00;92594.38;4948914;29;20035;-76
2023/05/22 04:43:57;;;;;;;13.88;8.80;;;;;;;11.33;100.00;92604.09;4932916;29;20044;-78
2023/05/22 04:46:23;;;;;;;14.43;7.55;;;;;;;11.33;100.00;92598.84;4929339;29;20059;-78
2023/05/22 04:48:49;;;;;;;9.75;7.20;;;;;;;11.33;100.00;92598.84;4916865;29;20342;-77
2023/05/22 04:51:15;;;;;;;9.80;7.10;;;;;;;11.36;100.00;92602.72;4931511;29;20066;-76
2023/05/22 04:53:40;;;;;;;11.68;7.13;;;;;;;11.35;100.00;92603.78;4933979;29;20134;-76
2023/05/22 04:56:06;;;;;;;12.13;7.60;;;;;;;11.35;100.00;92599.34;4918553;29;20046;-78
2023/05/22 04:58:32;;;;;;;12.05;6.75;;;;;;;11.36;100.00;92606.13;4948982;29;20046;-77
2023/05/22 05:00:58;;;;;;;10.88;7.18;;;;;;;11.38;100.00;92609.25;4918791;29;20039;-78
2023/05/22 05:03:25;;;;;;;9.43;6.53;;;;;;;11.37;100.00;92605.06;4940035;28;20046;-79
2023/05/22 05:05:51;;;;;;;9.50;6.53;;;;;;;11.38;100.00;92606.63;4935416;29;20038;-76
2023/05/22 05:08:17;;;;;;;10.30;7.05;;;;;;;11.40;100.00;92609.72;4934085;29;20039;-78
2023/05/22 05:10:42;;;;;;;11.10;6.07;;;;;;;11.40;100.00;92606.34;4936379;29;20044;-79
2023/05/22 05:13:08;;;;;;;8.55;6.05;;;;;;;11.41;100.00;92595.53;4916129;29;20039;-79
2023/05/22 05:15:37;;;;;;;13.20;6.90;;;;;;;11.42;100.00;92597.13;4922329;29;20035;-78
2023/05/22 05:18:02;;;;;;;9.43;5.95;;;;;;;11.43;100.00;92590.03;4936680;29;20043;-78
2023/05/22 05:20:29;;;;;;;8.65;6.18;;;;;;;11.45;100.00;92583.44;4942665;29;20027;-79
2023/05/22 05:22:55;;;;;;;10.65;6.40;;;;;;;11.45;100.00;92586.06;4939921;29;20043;-76
2023/05/22 05:25:21;;;;;;;12.02;7.25;;;;;;;11.44;100.00;92581.88;4940328;29;20036;-78
2023/05/22 05:27:47;;;;;;;9.27;6.47;;;;;;;11.46;100.00;92577.13;4944278;29;20039;-77
2023/05/22 05:30:13;;;;;;;10.40;6.65;;;;;;;11.45;100.00;92574.78;4924962;29;20123;-78
2023/05/22 05:33:01;;;;;;;10.40;7.25;;;;;;;11.41;100.00;92564.09;4925294;29;20498;-77
2023/05/22 05:35:42;;;;;;;9.80;7.00;;;;;;;11.42;100.00;92557.03;4940297;29;20529;-76
2023/05/22 05:38:10;;;;;;;10.18;7.03;;;;;;;11.44;100.00;92558.28;4937863;29;20043;-78
2023/05/22 05:40:37;;;;;;;18.40;7.55;;;;;;;11.46;100.00;92564.03;4946529;28;20475;-78
2023/05/22 05:43:06;;;;;;;10.82;7.03;;;;;;;11.49;100.00;92559.28;4920870;29;20048;-78
2023/05/22 05:45:32;;;;;;;13.18;7.43;;;;;;;11.52;100.00;92558.69;4933285;29;20047;-77
2023/05/22 05:47:58;;;;;;;11.27;7.47;;;;;;;11.54;100.00;92564.41;4923184;29;20035;-78
2023/05/22 05:50:23;;;;;;;11.05;7.53;;;;;;;11.53;100.00;92555.78;4939177;29;20091;-79
2023/05/22 05:52:49;;;;;;;11.80;7.47;;;;;;;11.58;100.00;92557.53;4955062;29;20526;-78
2023/05/22 05:55:17;;;;;;;9.13;6.80;;;;;;;11.60;100.00;92556.19;4939149;29;20071;-80
2023/05/22 05:57:42;;;;;;;10.27;7.00;;;;;;;11.63;100.00;92557.44;4955117;29;20042;-78
2023/05/22 06:00:13;;;;;;;10.60;7.03;;;;;;;11.66;100.00;92554.22;4939711;29;20383;-79
2023/05/22 06:02:42;;;;;;;10.32;6.95;;;;;;;11.70;100.00;92543.94;4952020;29;20131;-78
2023/05/22 06:05:31;;;;;;;10.30;7.15;;;;;;;11.76;100.00;92542.78;4929162;29;20054;-79
2023/05/22 06:08:21;;;;;;;10.88;7.43;;;;;;;11.82;100.00;92544.22;4933547;29;20055;-79
2023/05/22 06:10:47;;;;;;;9.85;6.93;;;;;;;11.87;100.00;92539.69;4929612;29;20395;-79
2023/05/22 06:13:30;;;;;;;16.30;7.45;;;;;;;11.95;100.00;92545.31;4952317;28;20035;-79
2023/05/22 06:15:56;;;;;;;10.68;7.20;;;;;;;11.98;100.00;92542.91;4934084;29;20113;-78
2023/05/22 06:18:24;;;;;;;11.68;7.20;;;;;;;12.03;100.00;92540.19;4933397;29;20155;-79
2023/05/22 06:20:52;;;;;;;10.80;7.30;;;;;;;12.10;100.00;92545.03;4936029;29;20043;-80
2023/05/22 06:23:18;;;;;;;11.05;7.28;;;;;;;12.36;100.00;92555.00;4950047;28;20043;-79
2023/05/22 06:25:45;;;;;;;11.93;6.43;;;;;;;12.42;100.00;92554.59;4936409;29;20042;-80
2023/05/22 06:28:11;;;;;;;11.07;6.85;;;;;;;12.36;100.00;92547.13;4937891;29;20044;-81
2023/05/22 06:30:37;;;;;;;12.70;7.32;;;;;;;12.37;100.00;92546.06;4920822;29;20040;-78
2023/05/22 06:33:03;;;;;;;10.10;7.25;;;;;;;12.38;100.00;92548.38;4952745;28;20031;-79
2023/05/22 06:35:30;;;;;;;13.85;8.68;;;;;;;12.44;100.00;92546.44;4936474;29;20043;-79
2023/05/22 06:37:56;;;;;;;10.43;8.00;;;;;;;12.50;100.00;92546.03;4952202;29;20198;-77
2023/05/22 06:40:23;;;;;;;9.55;6.95;;;;;;;12.55;100.00;92545.13;4950647;28;20482;-78
2023/05/22 06:42:52;;;;;;;10.20;7.25;;;;;;;12.62;100.00;92547.34;4933103;29;20051;-78
2023/05/22 06:45:53;;;;;;;10.30;7.43;;;;;;;12.72;100.00;92536.59;4887575;29;20092;-78
2023/05/22 06:48:34;;;;;;;9.32;6.50;;;;;;;12.86;100.00;92539.97;4928763;29;20052;-79
2023/05/22 06:51:10;;;;;;;8.63;6.30;;;;;;;12.95;100.00;92534.00;4934988;29;20039;-80
2023/05/22 06:53:38;;;;;;;9.90;5.68;;;;;;;13.20;100.00;92532.63;4953417;28;20111;-78
2023/05/22 06:56:08;;;;;;;8.73;5.57;;;;;;;13.21;100.00;92531.53;4939460;29;20103;-78
2023/05/22 06:58:46;;;;;;;8.63;6.55;;;;;;;13.27;100.00;92532.97;4929724;29;20044;-77
2023/05/22 07:01:11;;;;;;;12.07;7.57;;;;;;;13.34;100.00;92533.34;4905532;29;20042;-77
2023/05/22 07:03:44;;;;;;;10.07;7.38;;;;;;;13.41;100.00;92531.06;4937824;29;20055;-78
2023/05/22 07:06:32;;;;;;;9.05;6.55;;;;;;;13.50;100.00;92531.09;4938765;29;20050;-78
2023/05/22 07:09:00;;;;;;;11.43;7.72;;;;;;;13.58;100.00;92537.47;4936925;29;20043;-78
2023/05/22 07:11:26;;;;;;;9.02;6.82;;;;;;;13.64;100.00;92538.88;4951518;29;20050;-76
2023/05/22 07:13:51;;;;;;;9.15;6.00;;;;;;;13.75;100.00;92534.91;4938092;29;20031;-77
2023/05/22 07:16:17;;;;;;;10.80;6.03;;;;;;;13.80;100.00;92537.41;4945880;28;20047;-77
2023/05/22 07:18:44;;;;;;;8.20;5.60;;;;;;;13.84;100.00;92538.34;4936727;29;20032;-77
2023/05/22 07:21:11;;;;;;;9.70;6.55;;;;;;;13.97;100.00;92538.56;4930983;29;20129;-77
2023/05/22 07:23:37;;;;;;;13.40;6.40;;;;;;;14.09;100.00;92531.59;4934688;29;20115;-78
2023/05/22 07:26:03;;;;;;;8.93;6.40;;;;;;;14.23;100.00;92539.41;4935163;29;20079;-77
2023/05/22 07:28:34;;;;;;;9.37;6.63;;;;;;;14.40;100.00;92540.50;4934876;29;20036;-77
2023/05/22 07:31:06;;;;;;;10.70;7.10;;;;;;;14.66;100.00;92538.72;4934581;29;20074;-77
2023/05/22 07:33:32;;;;;;;9.85;6.85;;;;;;;14.98;100.00;92531.41;4936270;29;20130;-77
2023/05/22 07:35:58;;;;;;;11.57;7.10;;;;;;;15.68;100.00;92525.97;4914832;29;20098;-77
2023/05/22 07:38:24;;;;;;;9.95;6.95;;;;;;;16.29;100.00;92529.13;4949019;29;20047;-77
2023/05/22 07:41:03;;;;;;;8.93;5.80;;;;;;;16.65;100.00;92525.16;4933566;29;20094;-78
2023/05/22 07:43:30;;;;;;;12.57;5.93;;;;;;;16.99;100.00;92523.38;4937249;28;20035;-75
2023/05/22 07:45:57;;;;;;;7.25;5.60;;;;;;;17.42;100.00;92519.53;4946053;29;20071;-78
2023/05/22 07:48:26;;;;;;;8.63;6.13;;;;;;;17.78;100.00;92524.13;4913281;29;20032;-78
2023/05/22 07:50:53;;;;;;;8.93;5.70;;;;;;;17.91;100.00;92521.53;4934171;29;20043;-78
2023/05/22 07:53:18;;;;;;;7.38;4.57;;;;;;;17.87;100.00;92513.47;4944335;28;20142;-78
2023/05/22 07:55:48;;;;;;;8.75;5.75;;;;;;;17.96;100.00;92514.13;4955474;29;20054;-79
2023/05/22 07:58:14;;;;;;;8.60;5.78;;;;;;;18.02;100.00;92512.81;4956414;28;20109;-79
2023/05/22 08:00:41;;;;;;;8.57;5.20;;;;;;;18.06;100.00;92511.06;4956799;28;20155;-78
2023/05/22 08:03:07;;;;;;;10.05;5.28;;;;;;;18.16;100.00;92509.81;4956637;28;20497;-78
2023/05/22 08:05:32;;;;;;;8.90;5.63;;;;;;;18.26;100.00;92511.25;4955676;29;20042;-78
2023/05/22 08:07:58;;;;;;;8.50;5.60;;;;;;;18.25;100.00;92515.78;4955647;29;20035;-78
2023/05/22 08:10:23;;;;;;;14.27;7.05;;;;;;;18.22;100.00;92510.38;4955419;29;20134;-79
2023/05/22 08:12:49;;;;;;;10.93;5.80;;;;;;;18.28;100.00;92511.69;4952875;29;20047;-78
2023/05/22 08:15:15;;;;;;;11.45;6.35;;;;;;;18.12;100.00;92511.59;4937383;29;20242;-78
2023/05/22 08:17:40;;;;;;;12.35;7.22;;;;;;;18.16;100.00;92501.88;4935907;29;20035;-78
2023/05/22 08:20:07;;;;;;;9.82;6.78;;;;;;;18.23;100.00;92509.28;4935818;29;20039;-79
2023/05/22 08:22:33;;;;;;;8.75;6.30;;;;;;;18.35;100.00;92501.31;4936703;29;20059;-78
2023/05/22 08:24:59;;;;;;;9.98;6.22;;;;;;;18.61;100.00;92502.81;4935569;29;20521;-79
2023/05/22 08:27:24;;;;;;;8.85;6.60;;;;;;;18.70;100.00;92501.56;4936838;29;20063;-78
2023/05/22 08:29:50;;;;;;;7.72;5.78;;;;;;;18.67;100.00;92501.47;4935762;29;20051;-77
2023/05/22 08:32:17;;;;;;;9.18;5.80;;;;;;;18.85;100.00;92499.34;4925666;29;20581;-78
2023/05/22 08:34:44;;;;;;;10.40;6.18;;;;;;;19.10;100.00;92497.38;4933339;29;20034;-78
2023/05/22 08:37:11;;;;;;;9.70;6.60;;;;;;;18.80;100.00;92495.06;4930105;29;20138;-78
2023/05/22 08:39:36;;;;;;;9.85;5.70;;;;;;;18.77;100.00;92501.03;4952173;29;20102;-78
2023/05/22 08:42:03;;;;;;;11.32;6.35;;;;;;;19.00;100.00;92497.84;4936883;29;20486;-78
2023/05/22 08:44:29;;;;;;;10.75;6.35;;;;;;;18.98;100.00;92494.75;4937373;29;20506;-78
2023/05/22 08:46:58;;;;;;;8.65;6.10;;;;;;;18.92;100.00;92497.66;4935340;29;20044;-79
2023/05/22 08:49:24;;;;;;;10.00;5.22;;;;;;;18.99;92.87;92491.00;4921427;29;20343;-79
2023/05/22 08:51:55;;;;;;;7.93;5.20;;;;;;;19.07;81.93;92484.78;4937492;29;20040;-78
2023/05/22 08:54:25;;;;;;;7.50;4.95;;;;;;;19.37;78.59;92487.09;4953591;28;20133;-79
2023/05/22 08:56:52;;;;;;;7.55;5.32;;;;;;;19.59;78.74;92491.03;4949866;29;20060;-78
2023/05/22 08:59:19;;;;;;;7.63;4.95;;;;;;;19.43;73.73;92491.00;4954024;29;20039;-79
2023/05/22 09:01:45;;;;;;;8.00;5.32;;;;;;;19.25;77.68;92488.69;4939143;29;20046;-78
2023/05/22 09:04:11;;;;;;;9.52;5.32;;;;;;;19.20;81.80;92485.50;4956636;28;20039;-79
2023/05/22 09:06:37;;;;;;;8.68;5.20;;;;;;;18.95;82.99;92490.13;4939416;29;20050;-79
2023/05/22 09:09:03;;;;;;;7.50;5.00;;;;;;;19.07;80.41;92487.44;4955837;29;20035;-78
2023/05/22 09:11:28;;;;;;;8.45;4.63;;;;;;;18.88;70.26;92494.13;4956658;29;20046;-79
2023/05/22 09:14:10;;;;;;;9.30;4.72;;;;;;;18.91;72.32;92493.47;4950848;28;20059;-79
2023/05/22 09:16:45;;;;;;;7.15;4.60;;;;;;;18.91;71.01;92490.81;4948080;29;20596;-79
2023/05/22 09:19:13;;;;;;;11.00;5.05;;;;;;;19.10;76.33;92482.22;4956660;29;20028;-79
2023/05/22 09:21:39;;;;;;;9.80;5.28;;;;;;;19.18;78.03;92479.75;4956526;29;20038;-79
2023/05/22 09:24:10;;;;;;;9.10;5.00;;;;;;;19.43;80.20;92477.72;4956690;28;20055;-80
2023/05/22 09:26:39;;;;;;;9.35;5.20;;;;;;;19.64;76.14;92477.50;4956699;29;20058;-79
2023/05/22 09:29:06;;;;;;;8.18;4.57;;;;;;;19.66;67.43;92481.38;4955169;29;20091;-79
2023/05/22 09:31:39;;;;;;;6.22;4.90;;;;;;;19.87;75.59;92472.41;4939277;29;20130;-77
2023/05/22 09:34:06;;;;;;;10.90;5.13;;;;;;;20.26;77.73;92475.94;4956324;28;20373;-79
2023/05/22 09:36:32;;;;;;;12.43;5.55;;;;;;;20.27;74.98;92480.16;4956546;29;20098;-78
2023/05/22 09:39:03;;;;;;;9.68;5.53;;;;;;;20.01;78.58;92480.69;4955289;29;20023;-78
2023/05/22 09:41:33;;;;;;;8.95;6.13;;;;;;;19.90;93.23;92480.44;4956613;29;20055;-80
2023/05/22 09:43:59;;;;;;;8.02;5.60;;;;;;;19.40;93.10;92481.84;4955665;28;20038;-77
2023/05/22 09:46:25;;;;;;;8.90;6.22;;;;;;;19.36;100.00;92478.31;4953955;29;20485;-79
2023/05/22 09:48:51;;;;;;;8.93;6.45;;;;;;;19.35;100.00;92482.88;4940053;29;20114;-79
2023/05/22 09:51:20;;;;;;;9.20;6.22;;;;;;;19.23;92.67;92479.50;4939156;29;20527;-78
2023/05/22 09:53:48;;;;;;;10.88;5.88;;;;;;;19.59;98.58;92480.41;4954875;28;20047;-79
2023/05/22 09:56:16;;;;;;;7.25;4.90;;;;;;;19.43;91.09;92477.72;4938301;29;20039;-77
2023/05/22 09:58:46;;;;;;;8.13;5.75;;;;;;;19.49;94.02;92477.16;4956090;29;20055;-78
2023/05/22 10:01:14;;;;;;;13.75;6.18;;;;;;;19.71;94.39;92477.72;4955088;28;20031;-77
2023/05/22 10:03:41;;;;;;;8.80;6.10;;;;;;;19.75;92.61;92474.03;4955435;28;20146;-78
2023/05/22 10:06:10;;;;;;;10.15;5.90;;;;;;;19.90;99.99;92479.66;4957946;29;20054;-78
2023/05/22 10:08:42;;;;;;;8.68;5.22;;;;;;;19.86;98.90;92479.59;4958886;29;20046;-78
2023/05/22 10:11:10;;;;;;;9.40;5.82;;;;;;;19.88;97.53;92481.91;4944573;29;20035;-78
2023/05/22 10:13:36;;;;;;;9.50;6.38;;;;;;;20.07;95.05;92476.66;4971576;28;20035;-78
2023/05/22 10:16:03;;;;;;;8.18;5.20;;;;;;;20.08;100.00;92470.22;4959487;29;20047;-78
2023/05/22 10:18:29;;;;;;;8.43;5.57;;;;;;;20.36;99.61;92470.09;4942604;29;20070;-80
2023/05/22 10:20:56;;;;;;;9.23;5.97;;;;;;;19.86;99.25;92478.81;4942325;29;20520;-78
2023/05/22 10:23:23;;;;;;;11.10;6.53;;;;;;;19.64;100.00;92478.28;4957185;28;20493;-78
2023/05/22 10:25:49;;;;;;;8.00;5.47;;;;;;;19.81;93.60;92471.88;4940626;29;20070;-78
2023/05/22 10:28:26;;;;;;;10.32;5.82;;;;;;;19.66;93.02;92475.28;4941770;29;20040;-78
2023/05/22 10:31:00;;;;;;;11.50;6.28;;;;;;;19.88;91.49;92484.56;4960526;29;20354;-78
2023/05/22 10:33:56;;;;;;;6.75;4.85;;;;;;;19.58;85.03;92473.56;4921740;29;20553;-81
2023/05/22 10:36:37;;;;;;;7.68;4.97;;;;;;;19.62;97.65;92479.75;4942305;29;20522;-77
2023/05/22 10:39:31;;;;;;;7.60;5.20;;;;;;;20.15;91.94;92481.03;4957983;28;20038;-81
2023/05/22 10:41:57;;;;;;;7.47;4.95;;;;;;;20.55;80.96;92482.63;4923029;29;20126;-81
2023/05/22 10:44:23;;;;;;;9.05;5.38;;;;;;;21.00;79.80;92483.19;4958031;28;20533;-78
2023/05/22 10:46:51;;;;;;;7.55;4.78;;;;;;;20.64;73.99;92479.03;4935975;29;20099;-78
2023/05/22 10:49:24;;;;;;;13.25;5.20;;;;;;;20.27;77.97;92476.72;4937986;29;20082;-74
2023/05/22 10:51:56;;;;;;;11.98;5.05;;;;;;;20.24;81.64;92477.41;4953490;28;20031;-77
2023/05/22 10:54:44;;;;;;;7.90;5.03;;;;;;;20.37;81.08;92478.81;4953838;28;20047;-77
2023/05/22 10:57:16;;;;;;;7.68;4.85;;;;;;;20.38;77.09;92469.75;4948773;28;20053;-75
2023/05/22 10:59:42;;;;;;;6.40;4.40;;;;;;;20.34;75.88;92467.00;4952114;28;20035;-76
2023/05/22 11:02:19;;;;;;;6.60;4.47;;;;;;;20.09;78.28;92474.44;4955250;29;20134;-79
2023/05/22 11:04:45;;;;;;;7.70;4.78;;;;;;;19.96;79.24;92475.66;4958888;28;20090;-79
2023/05/22 11:07:13;;;;;;;8.52;4.97;;;;;;;20.36;77.90;92480.72;4959368;29;20041;-79
2023/05/22 11:09:40;;;;;;;8.93;5.10;;;;;;;20.30;75.39;92474.13;4968097;28;20114;-79
2023/05/22 11:12:21;;;;;;;7.95;4.97;;;;;;;20.34;72.59;92476.88;4977327;28;20492;-79
2023/05/22 11:14:55;;;;;;;8.18;4.93;;;;;;;20.45;74.38;92472.56;4977524;28;20057;-78
2023/05/22 11:17:22;;;;;;;7.50;5.03;;;;;;;20.58;72.23;92466.03;4975859;28;20038;-78
2023/05/22 11:20:14;;;;;;;8.07;4.45;;;;;;;20.63;73.53;92467.63;4978440;28;20567;-79
2023/05/22 11:22:42;;;;;;;8.18;4.85;;;;;;;20.79;75.48;92460.34;4960477;28;20051;-79
2023/05/22 11:25:16;;;;;;;10.68;4.78;;;;;;;20.90;68.85;92459.81;4940049;29;20035;-80
2023/05/22 11:27:43;;;;;;;6.55;4.53;;;;;;;20.96;67.72;92464.50;4938495;29;20063;-79
2023/05/22 11:30:10;;;;;;;6.60;4.28;;;;;;;20.60;66.96;92457.69;4939123;29;20074;-78